sensor_id;sensor_type;location;lat;lon;timestamp;temperature;humidity
34542;DHT22;20784;51.332;12.410;2023-06-22T00:00:55;22.70;99.90
34542;DHT22;20784;51.332;12.410;2023-06-22T00:03:26;22.60;99.90
34542;DHT22;20784;51.332;12.410;2023-06-22T00:05:52;22.60;99.90
34542;DHT22;20784;51.332;12.410;2023-06-22T00:08:19;22.50;99.90
34542;DHT22;20784;51.332;12.410;2023-06-22T00:10:45;22.50;99.90
34542;DHT22;20784;51.332;12.410;2023-06-22T00:13:16;22.40;99.90
34542;DHT22;20784;51.332;12.410;2023-06-22T00:15:43;22.40;99.90
34542;DHT22;20784;51.332;12.410;2023-06-22T00:18:09;22.30;99.90
34542;DHT22;20784;51.332;12.410;2023-06-22T00:20:36;22.30;99.90
34542;DHT22;20784;51.332;12.410;2023-06-22T00:23:06;22.30;99.90
34542;DHT22;20784;51.332;12.410;2023-06-22T00:25:35;22.30;99.90
34542;DHT22;20784;51.332;12.410;2023-06-22T00:28:02;22.30;99.90
34542;DHT22;20784;51.332;12.410;2023-06-22T00:30:28;22.30;99.90
34542;DHT22;20784;51.332;12.410;2023-06-22T00:32:53;22.20;99.90
34542;DHT22;20784;51.332;12.410;2023-06-22T00:35:19;22.10;99.90
34542;DHT22;20784;51.332;12.410;2023-06-22T00:37:44;22.20;99.90
34542;DHT22;20784;51.332;12.410;2023-06-22T00:40:10;22.10;99.90
34542;DHT22;20784;51.332;12.410;2023-06-22T00:42:39;22.10;99.90
34542;DHT22;20784;51.332;12.410;2023-06-22T00:45:06;22.00;99.90
34542;DHT22;20784;51.332;12.410;2023-06-22T00:47:36;22.00;99.90
34542;DHT22;20784;51.332;12.410;2023-06-22T00:50:03;22.10;99.90
34542;DHT22;20784;51.332;12.410;2023-06-22T00:52:31;21.90;99.90
34542;DHT22;20784;51.332;12.410;2023-06-22T00:54:59;22.00;99.90
34542;DHT22;20784;51.332;12.410;2023-06-22T00:57:30;21.90;99.90
34542;DHT22;20784;51.332;12.410;2023-06-22T01:00:04;21.90;99.90
34542;DHT22;20784;51.332;12.410;2023-06-22T01:02:34;21.80;99.90
34542;DHT22;20784;51.332;12.410;2023-06-22T01:05:04;21.80;99.90
34542;DHT22;20784;51.332;12.410;2023-06-22T01:15:49;21.70;99.90
34542;DHT22;20784;51.332;12.410;2023-06-22T01:18:17;21.60;99.90
34542;DHT22;20784;51.332;12.410;2023-06-22T01:20:44;21.70;99.90
34542;DHT22;20784;51.332;12.410;2023-06-22T01:26:18;21.60;99.90
34542;DHT22;20784;51.332;12.410;2023-06-22T01:28:49;21.60;99.90
34542;DHT22;20784;51.332;12.410;2023-06-22T01:31:26;21.60;99.90
34542;DHT22;20784;51.332;12.410;2023-06-22T01:33:58;21.40;99.90
34542;DHT22;20784;51.332;12.410;2023-06-22T01:36:25;21.40;99.90
34542;DHT22;20784;51.332;12.410;2023-06-22T01:38:57;21.30;99.90
34542;DHT22;20784;51.332;12.410;2023-06-22T01:41:34;21.50;99.90
34542;DHT22;20784;51.332;12.410;2023-06-22T01:44:01;21.40;99.90
34542;DHT22;20784;51.332;12.410;2023-06-22T01:46:32;21.40;99.90
34542;DHT22;20784;51.332;12.410;2023-06-22T01:48:58;21.40;99.90
34542;DHT22;20784;51.332;12.410;2023-06-22T01:51:30;21.40;99.90
34542;DHT22;20784;51.332;12.410;2023-06-22T01:53:55;21.30;99.90
34542;DHT22;20784;51.332;12.410;2023-06-22T01:56:27;21.30;99.90
34542;DHT22;20784;51.332;12.410;2023-06-22T01:59:09;21.30;99.90
34542;DHT22;20784;51.332;12.410;2023-06-22T02:02:01;21.40;99.90
34542;DHT22;20784;51.332;12.410;2023-06-22T02:04:39;21.30;99.90
34542;DHT22;20784;51.332;12.410;2023-06-22T02:07:13;21.30;99.90
34542;DHT22;20784;51.332;12.410;2023-06-22T02:09:48;21.30;99.90
34542;DHT22;20784;51.332;12.410;2023-06-22T02:12:21;21.30;99.90
34542;DHT22;20784;51.332;12.410;2023-06-22T02:14:48;21.20;99.90
34542;DHT22;20784;51.332;12.410;2023-06-22T02:17:14;21.20;99.90
34542;DHT22;20784;51.332;12.410;2023-06-22T02:19:42;21.10;99.90
34542;DHT22;20784;51.332;12.410;2023-06-22T02:22:11;21.10;99.90
34542;DHT22;20784;51.332;12.410;2023-06-22T02:24:40;21.00;99.90
34542;DHT22;20784;51.332;12.410;2023-06-22T02:27:06;21.00;99.90
34542;DHT22;20784;51.332;12.410;2023-06-22T02:29:32;21.00;99.90
34542;DHT22;20784;51.332;12.410;2023-06-22T02:31:58;21.00;99.90
34542;DHT22;20784;51.332;12.410;2023-06-22T02:34:27;20.90;99.90
34542;DHT22;20784;51.332;12.410;2023-06-22T02:36:53;21.00;99.90
34542;DHT22;20784;51.332;12.410;2023-06-22T02:39:22;20.90;99.90
34542;DHT22;20784;51.332;12.410;2023-06-22T02:41:52;20.80;99.90
34542;DHT22;20784;51.332;12.410;2023-06-22T02:44:18;20.70;99.90
34542;DHT22;20784;51.332;12.410;2023-06-22T02:46:44;20.70;99.90
34542;DHT22;20784;51.332;12.410;2023-06-22T02:49:10;20.70;99.90
34542;DHT22;20784;51.332;12.410;2023-06-22T02:51:39;20.70;99.90
34542;DHT22;20784;51.332;12.410;2023-06-22T02:54:07;20.70;99.90
34542;DHT22;20784;51.332;12.410;2023-06-22T02:56:33;20.70;99.90
34542;DHT22;20784;51.332;12.410;2023-06-22T02:59:04;20.60;99.90
34542;DHT22;20784;51.332;12.410;2023-06-22T03:01:30;20.60;99.90
34542;DHT22;20784;51.332;12.410;2023-06-22T03:03:59;20.60;99.90
34542;DHT22;20784;51.332;12.410;2023-06-22T03:06:24;20.50;99.90
34542;DHT22;20784;51.332;12.410;2023-06-22T03:08:59;20.50;99.90
34542;DHT22;20784;51.332;12.410;2023-06-22T03:11:25;20.50;99.90
34542;DHT22;20784;51.332;12.410;2023-06-22T03:13:51;20.40;99.90
34542;DHT22;20784;51.332;12.410;2023-06-22T03:16:18;20.50;99.90
34542;DHT22;20784;51.332;12.410;2023-06-22T03:18:44;20.40;99.90
34542;DHT22;20784;51.332;12.410;2023-06-22T03:21:10;20.40;99.90
34542;DHT22;20784;51.332;12.410;2023-06-22T03:23:40;20.40;99.90
34542;DHT22;20784;51.332;12.410;2023-06-22T03:26:06;20.40;99.90
34542;DHT22;20784;51.332;12.410;2023-06-22T03:28:39;20.40;99.90
34542;DHT22;20784;51.332;12.410;2023-06-22T03:31:05;20.50;99.90
34542;DHT22;20784;51.332;12.410;2023-06-22T03:33:32;20.40;99.90
34542;DHT22;20784;51.332;12.410;2023-06-22T03:35:58;20.40;99.90
34542;DHT22;20784;51.332;12.410;2023-06-22T03:38:23;20.40;99.90
34542;DHT22;20784;51.332;12.410;2023-06-22T03:40:51;20.40;99.90
34542;DHT22;20784;51.332;12.410;2023-06-22T03:43:17;20.30;99.90
34542;DHT22;20784;51.332;12.410;2023-06-22T03:45:45;20.30;99.90
34542;DHT22;20784;51.332;12.410;2023-06-22T03:48:12;20.30;99.90
34542;DHT22;20784;51.332;12.410;2023-06-22T03:50:54;20.40;99.90
34542;DHT22;20784;51.332;12.410;2023-06-22T03:53:20;20.50;99.90
34542;DHT22;20784;51.332;12.410;2023-06-22T03:55:50;20.50;99.90
34542;DHT22;20784;51.332;12.410;2023-06-22T03:58:20;20.50;99.90
34542;DHT22;20784;51.332;12.410;2023-06-22T04:00:48;20.50;99.90
34542;DHT22;20784;51.332;12.410;2023-06-22T04:03:14;20.50;99.90
34542;DHT22;20784;51.332;12.410;2023-06-22T04:05:41;20.50;99.90
34542;DHT22;20784;51.332;12.410;2023-06-22T04:08:07;20.50;99.90
34542;DHT22;20784;51.332;12.410;2023-06-22T04:10:35;20.60;99.90
34542;DHT22;20784;51.332;12.410;2023-06-22T04:13:06;20.70;99.90
34542;DHT22;20784;51.332;12.410;2023-06-22T04:15:31;20.70;99.90
34542;DHT22;20784;51.332;12.410;2023-06-22T04:17:57;20.80;99.90
34542;DHT22;20784;51.332;12.410;2023-06-22T04:20:23;20.80;99.90
34542;DHT22;20784;51.332;12.410;2023-06-22T04:22:54;20.90;99.90
34542;DHT22;20784;51.332;12.410;2023-06-22T04:25:20;20.90;99.90
34542;DHT22;20784;51.332;12.410;2023-06-22T04:27:46;20.90;99.90
34542;DHT22;20784;51.332;12.410;2023-06-22T04:30:15;21.10;99.90
34542;DHT22;20784;51.332;12.410;2023-06-22T04:32:42;21.10;99.90
34542;DHT22;20784;51.332;12.410;2023-06-22T04:35:11;21.10;99.90
34542;DHT22;20784;51.332;12.410;2023-06-22T04:37:40;21.20;99.90
34542;DHT22;20784;51.332;12.410;2023-06-22T04:40:06;21.20;99.90
34542;DHT22;20784;51.332;12.410;2023-06-22T04:42:34;21.30;99.90
34542;DHT22;20784;51.332;12.410;2023-06-22T04:45:00;21.30;99.90
34542;DHT22;20784;51.332;12.410;2023-06-22T04:47:26;21.30;99.90
34542;DHT22;20784;51.332;12.410;2023-06-22T04:49:51;21.30;99.90
34542;DHT22;20784;51.332;12.410;2023-06-22T04:52:17;21.30;99.90
34542;DHT22;20784;51.332;12.410;2023-06-22T04:54:43;21.40;99.90
34542;DHT22;20784;51.332;12.410;2023-06-22T04:57:13;21.40;99.90
34542;DHT22;20784;51.332;12.410;2023-06-22T04:59:38;21.40;99.90
34542;DHT22;20784;51.332;12.410;2023-06-22T05:02:07;21.40;99.90
34542;DHT22;20784;51.332;12.410;2023-06-22T05:04:33;21.50;99.90
34542;DHT22;20784;51.332;12.410;2023-06-22T05:07:01;21.50;99.90
34542;DHT22;20784;51.332;12.410;2023-06-22T05:09:27;21.50;99.90
34542;DHT22;20784;51.332;12.410;2023-06-22T05:11:52;21.60;99.90
34542;DHT22;20784;51.332;12.410;2023-06-22T05:14:18;21.70;99.90
34542;DHT22;20784;51.332;12.410;2023-06-22T05:16:44;21.70;99.90
34542;DHT22;20784;51.332;12.410;2023-06-22T05:19:11;21.90;99.90
34542;DHT22;20784;51.332;12.410;2023-06-22T05:21:37;21.90;99.90
34542;DHT22;20784;51.332;12.410;2023-06-22T05:24:03;21.80;99.90
34542;DHT22;20784;51.332;12.410;2023-06-22T05:26:30;21.90;99.90
34542;DHT22;20784;51.332;12.410;2023-06-22T05:28:56;22.10;99.90
34542;DHT22;20784;51.332;12.410;2023-06-22T05:31:23;22.10;99.90
34542;DHT22;20784;51.332;12.410;2023-06-22T05:33:54;22.10;99.90
34542;DHT22;20784;51.332;12.410;2023-06-22T05:36:21;22.20;99.90
34542;DHT22;20784;51.332;12.410;2023-06-22T05:38:50;22.20;99.90
34542;DHT22;20784;51.332;12.410;2023-06-22T05:41:23;22.40;99.90
34542;DHT22;20784;51.332;12.410;2023-06-22T05:43:49;22.20;99.90
34542;DHT22;20784;51.332;12.410;2023-06-22T05:46:14;22.20;99.90
34542;DHT22;20784;51.332;12.410;2023-06-22T05:48:45;22.20;99.90
34542;DHT22;20784;51.332;12.410;2023-06-22T05:51:11;22.30;99.90
34542;DHT22;20784;51.332;12.410;2023-06-22T05:53:36;22.40;99.90
34542;DHT22;20784;51.332;12.410;2023-06-22T05:56:02;22.50;99.90
34542;DHT22;20784;51.332;12.410;2023-06-22T05:58:27;22.50;99.90
34542;DHT22;20784;51.332;12.410;2023-06-22T06:00:53;22.60;99.90
34542;DHT22;20784;51.332;12.410;2023-06-22T06:03:21;22.70;99.90
34542;DHT22;20784;51.332;12.410;2023-06-22T06:05:48;22.80;99.90
34542;DHT22;20784;51.332;12.410;2023-06-22T06:08:13;22.90;99.90
34542;DHT22;20784;51.332;12.410;2023-06-22T06:10:39;23.00;99.90
34542;DHT22;20784;51.332;12.410;2023-06-22T06:13:07;23.00;99.90
34542;DHT22;20784;51.332;12.410;2023-06-22T06:15:42;23.10;99.90
34542;DHT22;20784;51.332;12.410;2023-06-22T06:18:11;23.20;99.90
34542;DHT22;20784;51.332;12.410;2023-06-22T06:20:37;23.40;99.90
34542;DHT22;20784;51.332;12.410;2023-06-22T06:23:03;23.50;99.90
34542;DHT22;20784;51.332;12.410;2023-06-22T06:25:28;23.60;99.90
34542;DHT22;20784;51.332;12.410;2023-06-22T06:27:54;23.80;99.90
34542;DHT22;20784;51.332;12.410;2023-06-22T06:30:20;23.90;99.90
34542;DHT22;20784;51.332;12.410;2023-06-22T06:32:51;24.10;99.90
34542;DHT22;20784;51.332;12.410;2023-06-22T06:35:37;24.20;99.90
34542;DHT22;20784;51.332;12.410;2023-06-22T06:38:10;24.30;99.90
34542;DHT22;20784;51.332;12.410;2023-06-22T06:40:41;24.30;99.90
34542;DHT22;20784;51.332;12.410;2023-06-22T06:43:14;24.30;99.90
34542;DHT22;20784;51.332;12.410;2023-06-22T06:45:43;24.30;99.90
34542;DHT22;20784;51.332;12.410;2023-06-22T06:48:15;24.40;99.90
34542;DHT22;20784;51.332;12.410;2023-06-22T06:50:40;24.60;99.90
34542;DHT22;20784;51.332;12.410;2023-06-22T06:53:06;24.70;99.90
34542;DHT22;20784;51.332;12.410;2023-06-22T06:55:32;24.90;99.90
34542;DHT22;20784;51.332;12.410;2023-06-22T06:58:09;24.90;99.90
34542;DHT22;20784;51.332;12.410;2023-06-22T07:00:37;25.10;99.90
34542;DHT22;20784;51.332;12.410;2023-06-22T07:03:04;25.20;99.90
34542;DHT22;20784;51.332;12.410;2023-06-22T07:05:32;25.30;99.90
34542;DHT22;20784;51.332;12.410;2023-06-22T07:08:00;25.30;99.90
34542;DHT22;20784;51.332;12.410;2023-06-22T07:10:52;25.50;99.90
34542;DHT22;20784;51.332;12.410;2023-06-22T07:13:19;25.60;99.90
34542;DHT22;20784;51.332;12.410;2023-06-22T07:15:48;25.60;99.90
34542;DHT22;20784;51.332;12.410;2023-06-22T07:18:16;25.70;99.90
34542;DHT22;20784;51.332;12.410;2023-06-22T07:20:42;25.50;99.90
34542;DHT22;20784;51.332;12.410;2023-06-22T07:23:13;25.40;99.90
34542;DHT22;20784;51.332;12.410;2023-06-22T07:25:38;25.40;99.90
34542;DHT22;20784;51.332;12.410;2023-06-22T07:28:05;25.60;99.90
34542;DHT22;20784;51.332;12.410;2023-06-22T07:30:32;25.70;99.90
34542;DHT22;20784;51.332;12.410;2023-06-22T07:32:59;25.60;99.90
34542;DHT22;20784;51.332;12.410;2023-06-22T07:35:31;25.80;99.90
34542;DHT22;20784;51.332;12.410;2023-06-22T07:37:56;25.90;99.90
34542;DHT22;20784;51.332;12.410;2023-06-22T07:40:24;26.00;99.90
34542;DHT22;20784;51.332;12.410;2023-06-22T07:42:50;26.00;99.90
34542;DHT22;20784;51.332;12.410;2023-06-22T07:45:27;25.90;99.90
34542;DHT22;20784;51.332;12.410;2023-06-22T07:47:52;26.00;99.90
34542;DHT22;20784;51.332;12.410;2023-06-22T07:50:18;26.10;99.90
34542;DHT22;20784;51.332;12.410;2023-06-22T07:52:47;26.20;99.90
34542;DHT22;20784;51.332;12.410;2023-06-22T07:55:20;26.30;99.90
34542;DHT22;20784;51.332;12.410;2023-06-22T07:57:48;26.50;99.90
34542;DHT22;20784;51.332;12.410;2023-06-22T08:00:14;26.60;99.90
34542;DHT22;20784;51.332;12.410;2023-06-22T08:02:45;26.80;99.90
34542;DHT22;20784;51.332;12.410;2023-06-22T08:05:15;27.00;99.90
34542;DHT22;20784;51.332;12.410;2023-06-22T08:07:43;27.10;99.90
34542;DHT22;20784;51.332;12.410;2023-06-22T08:10:13;27.30;99.90
34542;DHT22;20784;51.332;12.410;2023-06-22T08:12:42;27.40;99.90
34542;DHT22;20784;51.332;12.410;2023-06-22T08:15:12;27.40;99.90
34542;DHT22;20784;51.332;12.410;2023-06-22T08:17:44;27.50;99.90
34542;DHT22;20784;51.332;12.410;2023-06-22T08:20:13;27.60;99.90
34542;DHT22;20784;51.332;12.410;2023-06-22T08:22:44;27.60;99.90
34542;DHT22;20784;51.332;12.410;2023-06-22T08:25:10;27.70;99.90
34542;DHT22;20784;51.332;12.410;2023-06-22T08:27:42;27.70;99.90
34542;DHT22;20784;51.332;12.410;2023-06-22T08:30:13;27.70;99.90
34542;DHT22;20784;51.332;12.410;2023-06-22T08:32:47;27.80;99.90
34542;DHT22;20784;51.332;12.410;2023-06-22T08:35:13;27.90;99.90
34542;DHT22;20784;51.332;12.410;2023-06-22T08:37:42;27.80;99.90
34542;DHT22;20784;51.332;12.410;2023-06-22T08:40:21;28.00;99.90
34542;DHT22;20784;51.332;12.410;2023-06-22T08:42:50;27.90;99.90
34542;DHT22;20784;51.332;12.410;2023-06-22T08:45:15;28.00;99.90
34542;DHT22;20784;51.332;12.410;2023-06-22T08:47:42;27.80;99.90
34542;DHT22;20784;51.332;12.410;2023-06-22T08:50:13;28.00;99.90
34542;DHT22;20784;51.332;12.410;2023-06-22T08:52:52;28.00;99.90
34542;DHT22;20784;51.332;12.410;2023-06-22T08:55:18;28.30;99.90
34542;DHT22;20784;51.332;12.410;2023-06-22T09:00:23;28.60;99.90
34542;DHT22;20784;51.332;12.410;2023-06-22T09:02:52;28.60;99.90
34542;DHT22;20784;51.332;12.410;2023-06-22T09:05:24;28.70;99.90
34542;DHT22;20784;51.332;12.410;2023-06-22T09:07:58;28.80;99.90
34542;DHT22;20784;51.332;12.410;2023-06-22T09:10:25;29.00;99.90
34542;DHT22;20784;51.332;12.410;2023-06-22T09:12:54;29.00;99.90
34542;DHT22;20784;51.332;12.410;2023-06-22T09:15:28;29.30;99.90
34542;DHT22;20784;51.332;12.410;2023-06-22T09:17:57;29.40;99.90
34542;DHT22;20784;51.332;12.410;2023-06-22T09:20:28;29.50;99.90
34542;DHT22;20784;51.332;12.410;2023-06-22T09:22:56;29.60;99.90
34542;DHT22;20784;51.332;12.410;2023-06-22T09:25:22;29.90;99.90
34542;DHT22;20784;51.332;12.410;2023-06-22T09:27:50;30.10;99.90
34542;DHT22;20784;51.332;12.410;2023-06-22T09:30:15;30.30;99.90
34542;DHT22;20784;51.332;12.410;2023-06-22T09:32:41;30.20;99.90
34542;DHT22;20784;51.332;12.410;2023-06-22T09:35:07;30.20;99.90
34542;DHT22;20784;51.332;12.410;2023-06-22T09:37:40;30.10;99.90
34542;DHT22;20784;51.332;12.410;2023-06-22T09:40:17;30.10;99.90
34542;DHT22;20784;51.332;12.410;2023-06-22T09:42:46;30.10;99.90
34542;DHT22;20784;51.332;12.410;2023-06-22T09:45:29;30.20;99.90
34542;DHT22;20784;51.332;12.410;2023-06-22T09:48:06;30.10;99.90
34542;DHT22;20784;51.332;12.410;2023-06-22T09:50:38;30.10;99.90
34542;DHT22;20784;51.332;12.410;2023-06-22T09:53:06;30.10;99.90
34542;DHT22;20784;51.332;12.410;2023-06-22T09:55:35;30.30;99.90
34542;DHT22;20784;51.332;12.410;2023-06-22T09:58:05;30.40;99.90
34542;DHT22;20784;51.332;12.410;2023-06-22T10:00:31;30.60;99.90
34542;DHT22;20784;51.332;12.410;2023-06-22T10:02:57;30.70;99.90
34542;DHT22;20784;51.332;12.410;2023-06-22T10:05:23;30.90;99.90
34542;DHT22;20784;51.332;12.410;2023-06-22T10:07:51;30.90;99.90
34542;DHT22;20784;51.332;12.410;2023-06-22T10:10:19;31.20;99.90
34542;DHT22;20784;51.332;12.410;2023-06-22T10:13:07;31.20;99.90
34542;DHT22;20784;51.332;12.410;2023-06-22T10:15:34;31.10;99.90
34542;DHT22;20784;51.332;12.410;2023-06-22T10:18:03;31.30;99.90
34542;DHT22;20784;51.332;12.410;2023-06-22T10:20:28;31.30;99.90
34542;DHT22;20784;51.332;12.410;2023-06-22T10:22:54;31.30;99.90
34542;DHT22;20784;51.332;12.410;2023-06-22T10:25:20;31.50;99.90
34542;DHT22;20784;51.332;12.410;2023-06-22T10:27:48;31.80;99.90
34542;DHT22;20784;51.332;12.410;2023-06-22T10:30:16;31.70;99.90
34542;DHT22;20784;51.332;12.410;2023-06-22T10:32:44;31.80;99.90
34542;DHT22;20784;51.332;12.410;2023-06-22T10:35:10;31.80;99.90
34542;DHT22;20784;51.332;12.410;2023-06-22T10:37:38;32.10;99.90
34542;DHT22;20784;51.332;12.410;2023-06-22T10:40:13;32.10;99.90
34542;DHT22;20784;51.332;12.410;2023-06-22T10:42:47;32.30;99.90
34542;DHT22;20784;51.332;12.410;2023-06-22T10:45:15;32.20;99.90
34542;DHT22;20784;51.332;12.410;2023-06-22T10:47:41;32.40;99.90
34542;DHT22;20784;51.332;12.410;2023-06-22T10:50:10;32.50;99.90
34542;DHT22;20784;51.332;12.410;2023-06-22T10:52:36;32.40;99.90
34542;DHT22;20784;51.332;12.410;2023-06-22T10:55:05;32.50;99.90
34542;DHT22;20784;51.332;12.410;2023-06-22T10:57:31;32.60;99.90
34542;DHT22;20784;51.332;12.410;2023-06-22T10:59:59;32.70;99.90
34542;DHT22;20784;51.332;12.410;2023-06-22T11:02:25;32.70;99.90
34542;DHT22;20784;51.332;12.410;2023-06-22T11:04:51;32.70;99.90
34542;DHT22;20784;51.332;12.410;2023-06-22T11:07:16;32.90;99.90
34542;DHT22;20784;51.332;12.410;2023-06-22T11:10:05;33.00;99.90
34542;DHT22;20784;51.332;12.410;2023-06-22T11:14:49;33.30;99.90
34542;DHT22;20784;51.332;12.410;2023-06-22T11:17:18;33.40;99.90
34542;DHT22;20784;51.332;12.410;2023-06-22T11:19:52;33.40;99.90
34542;DHT22;20784;51.332;12.410;2023-06-22T11:22:26;33.30;99.90
34542;DHT22;20784;51.332;12.410;2023-06-22T11:24:51;33.40;99.90
34542;DHT22;20784;51.332;12.410;2023-06-22T11:27:17;33.60;99.90
34542;DHT22;20784;51.332;12.410;2023-06-22T11:29:46;33.60;99.90
34542;DHT22;20784;51.332;12.410;2023-06-22T11:32:18;33.70;99.90
34542;DHT22;20784;51.332;12.410;2023-06-22T11:34:50;33.60;99.90
34542;DHT22;20784;51.332;12.410;2023-06-22T11:37:16;33.80;99.90
34542;DHT22;20784;51.332;12.410;2023-06-22T11:39:44;33.70;99.90
34542;DHT22;20784;51.332;12.410;2023-06-22T11:42:20;33.50;99.90
34542;DHT22;20784;51.332;12.410;2023-06-22T11:44:49;33.30;99.90
34542;DHT22;20784;51.332;12.410;2023-06-22T11:47:17;33.30;99.90
34542;DHT22;20784;51.332;12.410;2023-06-22T11:49:43;33.50;99.90
34542;DHT22;20784;51.332;12.410;2023-06-22T11:52:09;33.50;99.90
34542;DHT22;20784;51.332;12.410;2023-06-22T11:54:34;33.50;99.90
34542;DHT22;20784;51.332;12.410;2023-06-22T11:57:00;33.50;99.90
34542;DHT22;20784;51.332;12.410;2023-06-22T11:59:25;33.50;99.90
34542;DHT22;20784;51.332;12.410;2023-06-22T12:01:51;33.40;99.90
34542;DHT22;20784;51.332;12.410;2023-06-22T12:04:19;33.50;99.90
34542;DHT22;20784;51.332;12.410;2023-06-22T12:07:01;33.40;99.90
34542;DHT22;20784;51.332;12.410;2023-06-22T12:09:28;33.70;99.90
34542;DHT22;20784;51.332;12.410;2023-06-22T12:11:53;33.70;99.90
34542;DHT22;20784;51.332;12.410;2023-06-22T12:14:19;33.50;99.90
34542;DHT22;20784;51.332;12.410;2023-06-22T12:16:54;33.50;99.90
34542;DHT22;20784;51.332;12.410;2023-06-22T12:19:29;33.60;99.90
34542;DHT22;20784;51.332;12.410;2023-06-22T12:21:54;33.70;99.90
34542;DHT22;20784;51.332;12.410;2023-06-22T12:24:22;33.50;99.90
34542;DHT22;20784;51.332;12.410;2023-06-22T12:26:48;33.60;99.90
34542;DHT22;20784;51.332;12.410;2023-06-22T12:29:14;33.70;99.90
34542;DHT22;20784;51.332;12.410;2023-06-22T12:31:40;34.00;99.90
34542;DHT22;20784;51.332;12.410;2023-06-22T12:34:07;34.20;99.90
34542;DHT22;20784;51.332;12.410;2023-06-22T12:36:32;34.10;99.90
34542;DHT22;20784;51.332;12.410;2023-06-22T12:38:58;34.20;99.90
34542;DHT22;20784;51.332;12.410;2023-06-22T12:41:23;34.20;99.90
34542;DHT22;20784;51.332;12.410;2023-06-22T12:43:51;34.10;99.90
34542;DHT22;20784;51.332;12.410;2023-06-22T12:46:17;33.70;99.90
34542;DHT22;20784;51.332;12.410;2023-06-22T12:48:43;33.80;99.90
34542;DHT22;20784;51.332;12.410;2023-06-22T12:51:09;33.80;99.90
34542;DHT22;20784;51.332;12.410;2023-06-22T12:53:35;33.90;99.90
34542;DHT22;20784;51.332;12.410;2023-06-22T12:56:01;33.90;99.90
34542;DHT22;20784;51.332;12.410;2023-06-22T12:58:26;33.90;99.90
34542;DHT22;20784;51.332;12.410;2023-06-22T13:00:52;33.70;99.90
34542;DHT22;20784;51.332;12.410;2023-06-22T13:03:24;33.60;99.90
34542;DHT22;20784;51.332;12.410;2023-06-22T13:05:51;33.40;99.90
34542;DHT22;20784;51.332;12.410;2023-06-22T13:08:17;33.40;99.90
34542;DHT22;20784;51.332;12.410;2023-06-22T13:10:45;33.60;99.90
34542;DHT22;20784;51.332;12.410;2023-06-22T13:13:10;33.60;99.90
34542;DHT22;20784;51.332;12.410;2023-06-22T13:15:41;33.40;99.90
34542;DHT22;20784;51.332;12.410;2023-06-22T13:18:07;33.30;99.90
34542;DHT22;20784;51.332;12.410;2023-06-22T13:20:33;33.10;99.90
34542;DHT22;20784;51.332;12.410;2023-06-22T13:22:59;33.00;99.90
34542;DHT22;20784;51.332;12.410;2023-06-22T13:25:24;33.20;99.90
34542;DHT22;20784;51.332;12.410;2023-06-22T13:27:52;33.40;99.90
34542;DHT22;20784;51.332;12.410;2023-06-22T13:30:17;33.40;99.90
34542;DHT22;20784;51.332;12.410;2023-06-22T13:32:43;33.50;99.90
34542;DHT22;20784;51.332;12.410;2023-06-22T13:35:09;33.60;99.90
34542;DHT22;20784;51.332;12.410;2023-06-22T13:37:35;33.80;99.90
34542;DHT22;20784;51.332;12.410;2023-06-22T13:40:01;33.60;99.90
34542;DHT22;20784;51.332;12.410;2023-06-22T13:42:28;33.60;99.90
34542;DHT22;20784;51.332;12.410;2023-06-22T13:44:54;33.80;99.90
34542;DHT22;20784;51.332;12.410;2023-06-22T13:47:20;33.80;99.90
34542;DHT22;20784;51.332;12.410;2023-06-22T13:49:48;33.70;99.90
34542;DHT22;20784;51.332;12.410;2023-06-22T13:52:35;33.70;99.90
34542;DHT22;20784;51.332;12.410;2023-06-22T13:55:03;33.90;99.90
34542;DHT22;20784;51.332;12.410;2023-06-22T13:57:30;34.10;99.90
34542;DHT22;20784;51.332;12.410;2023-06-22T13:59:55;34.30;99.90
34542;DHT22;20784;51.332;12.410;2023-06-22T14:02:21;34.10;99.90
34542;DHT22;20784;51.332;12.410;2023-06-22T14:04:52;34.00;99.90
34542;DHT22;20784;51.332;12.410;2023-06-22T14:07:18;33.70;99.90
34542;DHT22;20784;51.332;12.410;2023-06-22T14:09:44;33.50;99.90
34542;DHT22;20784;51.332;12.410;2023-06-22T14:12:11;33.60;99.90
34542;DHT22;20784;51.332;12.410;2023-06-22T14:14:36;33.60;99.90
34542;DHT22;20784;51.332;12.410;2023-06-22T14:17:03;33.50;99.90
34542;DHT22;20784;51.332;12.410;2023-06-22T14:19:29;33.40;99.90
34542;DHT22;20784;51.332;12.410;2023-06-22T14:21:55;33.50;99.90
34542;DHT22;20784;51.332;12.410;2023-06-22T14:24:21;33.60;99.90
34542;DHT22;20784;51.332;12.410;2023-06-22T14:26:46;33.70;99.90
34542;DHT22;20784;51.332;12.410;2023-06-22T14:29:15;33.80;99.90
34542;DHT22;20784;51.332;12.410;2023-06-22T14:31:44;33.60;99.90
34542;DHT22;20784;51.332;12.410;2023-06-22T14:34:10;33.30;99.90
34542;DHT22;20784;51.332;12.410;2023-06-22T14:36:35;33.00;99.90
34542;DHT22;20784;51.332;12.410;2023-06-22T14:39:03;33.00;99.90
34542;DHT22;20784;51.332;12.410;2023-06-22T14:41:34;33.10;99.90
34542;DHT22;20784;51.332;12.410;2023-06-22T14:44:00;33.10;99.90
34542;DHT22;20784;51.332;12.410;2023-06-22T14:46:25;33.20;99.90
34542;DHT22;20784;51.332;12.410;2023-06-22T14:48:51;33.20;99.90
34542;DHT22;20784;51.332;12.410;2023-06-22T14:51:17;33.20;99.90
34542;DHT22;20784;51.332;12.410;2023-06-22T14:53:43;33.20;99.90
34542;DHT22;20784;51.332;12.410;2023-06-22T14:56:09;33.10;99.90
34542;DHT22;20784;51.332;12.410;2023-06-22T14:58:35;33.20;99.90
34542;DHT22;20784;51.332;12.410;2023-06-22T15:01:04;33.20;99.90
34542;DHT22;20784;51.332;12.410;2023-06-22T15:03:35;33.10;99.90
34542;DHT22;20784;51.332;12.410;2023-06-22T15:06:02;33.00;99.90
34542;DHT22;20784;51.332;12.410;2023-06-22T15:08:28;33.10;99.90
34542;DHT22;20784;51.332;12.410;2023-06-22T15:10:54;33.00;99.90
34542;DHT22;20784;51.332;12.410;2023-06-22T15:13:21;32.70;99.90
34542;DHT22;20784;51.332;12.410;2023-06-22T15:15:48;32.70;99.90
34542;DHT22;20784;51.332;12.410;2023-06-22T15:18:14;32.80;99.90
34542;DHT22;20784;51.332;12.410;2023-06-22T15:20:41;32.90;99.90
34542;DHT22;20784;51.332;12.410;2023-06-22T15:23:10;32.80;99.90
34542;DHT22;20784;51.332;12.410;2023-06-22T15:25:36;32.60;99.90
34542;DHT22;20784;51.332;12.410;2023-06-22T15:28:01;32.40;99.90
34542;DHT22;20784;51.332;12.410;2023-06-22T15:30:28;32.30;99.90
34542;DHT22;20784;51.332;12.410;2023-06-22T15:32:53;32.30;99.90
34542;DHT22;20784;51.332;12.410;2023-06-22T15:35:19;32.20;99.90
34542;DHT22;20784;51.332;12.410;2023-06-22T15:37:48;32.30;99.90